Time;durP1;ratioP1;P1;durP2;ratioP2;P2;SDS_P1;SDS_P2;PMS_P1;PMS_P2;Temp;Humidity;BMP_temperature;BMP_pressure;BME280_temperature;BME280_humidity;BME280_pressure;Samples;Min_cycle;Max_cycle;Signal;HPM_P1;HPM_P2
2022/07/26 00:00:47;;;;;;;1999.90;999.90;;;;;;;22.66;81.13;95316.84;5010339;28;20028;-68
2022/07/26 00:03:13;;;;;;;1999.90;999.90;;;;;;;22.64;80.80;95306.38;5026742;28;20049;-68
2022/07/26 00:05:38;;;;;;;1999.90;999.90;;;;;;;22.94;80.56;95346.13;5020259;28;20113;-68
2022/07/26 00:08:11;;;;;;;1999.90;999.90;;;;;;;23.04;80.42;95356.25;5007109;28;20032;-68
2022/07/26 00:10:39;;;;;;;1999.90;999.90;;;;;;;23.22;80.52;95381.53;4999833;28;20041;-68
2022/07/26 00:13:05;;;;;;;1999.90;999.90;;;;;;;23.20;80.02;95364.09;5043249;22;20029;-69
2022/07/26 00:15:30;;;;;;;1999.90;999.90;;;;;;;23.23;79.55;95364.09;5012779;28;20415;-69
2022/07/26 00:17:56;;;;;;;1999.90;999.90;;;;;;;23.19;79.98;95382.31;5004887;28;20022;-69
2022/07/26 00:20:21;;;;;;;1999.90;999.90;;;;;;;23.21;79.87;95381.94;5001126;28;20107;-68
2022/07/26 00:22:46;;;;;;;1999.90;999.90;;;;;;;23.15;79.07;95378.78;4993657;28;20105;-68
2022/07/26 00:25:12;;;;;;;1999.90;999.90;;;;;;;23.04;79.36;95380.66;4971748;28;20034;-68
2022/07/26 00:27:37;;;;;;;1999.90;999.90;;;;;;;23.06;78.35;95392.69;4989258;28;20109;-69
2022/07/26 00:30:08;;;;;;;1999.90;999.90;;;;;;;22.98;79.09;95382.16;4973007;28;20106;-69
2022/07/26 00:32:34;;;;;;;1999.90;999.90;;;;;;;22.95;79.07;95370.16;5006080;28;20034;-69
2022/07/26 00:35:00;;;;;;;1999.90;999.90;;;;;;;22.91;79.06;95355.00;5007133;28;20088;-68
2022/07/26 00:37:25;;;;;;;1999.90;999.90;;;;;;;22.71;77.85;95338.16;4992407;28;20018;-68
2022/07/26 00:39:50;;;;;;;1999.90;999.90;;;;;;;22.47;77.66;95317.84;4975449;28;20426;-69
2022/07/26 00:42:16;;;;;;;1999.90;999.90;;;;;;;22.55;78.33;95308.63;5018870;28;20030;-69
2022/07/26 00:44:43;;;;;;;1999.90;999.90;;;;;;;22.67;78.77;95316.44;5009210;28;20787;-69
2022/07/26 00:47:09;;;;;;;1999.90;999.90;;;;;;;22.65;78.90;95297.06;4980709;28;20038;-69
2022/07/26 00:49:34;;;;;;;1999.90;999.90;;;;;;;22.46;78.85;95306.22;5011895;28;20026;-69
2022/07/26 00:52:00;;;;;;;1999.90;999.90;;;;;;;22.39;79.17;95294.56;4995455;28;20038;-69
2022/07/26 00:54:26;;;;;;;1999.90;999.90;;;;;;;22.39;78.02;95298.06;4992705;28;20019;-69
2022/07/26 00:56:52;;;;;;;1999.90;999.90;;;;;;;22.22;78.94;95271.63;4992137;28;20031;-69
2022/07/26 00:59:17;;;;;;;1999.90;999.90;;;;;;;22.42;77.78;95294.59;4975663;28;20355;-69
2022/07/26 01:01:42;;;;;;;1999.90;999.90;;;;;;;22.29;79.23;95290.63;4979374;28;20021;-69
2022/07/26 01:04:08;;;;;;;1999.90;999.90;;;;;;;22.23;79.25;95301.03;5012256;28;20160;-69
2022/07/26 01:06:33;;;;;;;1999.90;999.90;;;;;;;22.44;79.83;95297.72;4994507;28;20463;-69
2022/07/26 01:08:59;;;;;;;1999.90;999.90;;;;;;;22.57;79.96;95298.97;4974885;28;20058;-69
2022/07/26 01:11:24;;;;;;;1999.90;999.90;;;;;;;22.23;78.16;95292.91;4994941;28;20323;-69
2022/07/26 01:13:50;;;;;;;1999.90;999.90;;;;;;;22.44;79.21;95291.50;4994424;28;20030;-69
2022/07/26 01:16:16;;;;;;;1999.90;999.90;;;;;;;22.27;78.51;95288.28;4979102;28;20030;-69
2022/07/26 01:18:41;;;;;;;1999.90;999.90;;;;;;;22.15;77.68;95295.91;4994800;28;20041;-69
2022/07/26 01:21:09;;;;;;;1999.90;999.90;;;;;;;22.24;79.25;95299.88;4980043;28;20030;-69
2022/07/26 01:23:35;;;;;;;1999.90;999.90;;;;;;;22.40;79.49;95294.19;4991448;28;20022;-69
2022/07/26 01:26:00;;;;;;;1999.90;999.90;;;;;;;22.39;78.46;95286.44;4991015;28;20110;-69
2022/07/26 01:28:25;;;;;;;1999.90;999.90;;;;;;;22.53;79.06;95300.09;5008129;28;20026;-68
2022/07/26 01:30:50;;;;;;;1999.90;999.90;;;;;;;22.61;79.01;95306.34;4991893;28;20030;-69
2022/07/26 01:33:16;;;;;;;1999.90;999.90;;;;;;;22.70;79.42;95301.38;5009293;28;20092;-69
2022/07/26 01:35:41;;;;;;;1999.90;999.90;;;;;;;22.79;79.20;95308.03;5006815;28;20034;-69
2022/07/26 01:38:07;;;;;;;1999.90;999.90;;;;;;;22.85;79.56;95303.00;4990220;28;20109;-69
2022/07/26 01:40:32;;;;;;;1999.90;999.90;;;;;;;22.93;78.68;95307.38;4991179;28;20121;-69
2022/07/26 01:42:57;;;;;;;1999.90;999.90;;;;;;;22.92;79.08;95296.88;5006698;28;20034;-68
2022/07/26 01:45:23;;;;;;;1999.90;999.90;;;;;;;22.87;77.37;95308.81;5003288;28;20030;-69
2022/07/26 01:47:49;;;;;;;1999.90;999.90;;;;;;;22.88;77.64;95306.88;5005614;28;20041;-69
2022/07/26 01:50:15;;;;;;;1999.90;999.90;;;;;;;22.92;77.39;95308.50;5011670;28;20030;-69
2022/07/26 01:52:41;;;;;;;1999.90;999.90;;;;;;;22.97;77.84;95299.22;4979322;28;20427;-69
2022/07/26 01:55:06;;;;;;;1999.90;999.90;;;;;;;22.96;76.61;95300.38;4992876;28;20169;-68
2022/07/26 01:57:32;;;;;;;1999.90;999.90;;;;;;;23.01;77.51;95297.31;4973921;28;20037;-69
2022/07/26 01:59:57;;;;;;;1999.90;999.90;;;;;;;23.07;77.29;95307.41;4992500;28;20034;-69
2022/07/26 02:02:23;;;;;;;1999.90;999.90;;;;;;;23.02;76.55;95290.72;4973545;28;20034;-69
2022/07/26 02:04:57;;;;;;;1999.90;999.90;;;;;;;23.06;76.71;95294.25;4991796;28;20023;-69
2022/07/26 02:07:23;;;;;;;1999.90;999.90;;;;;;;23.07;77.03;95284.94;4990467;28;20045;-69
2022/07/26 02:09:49;;;;;;;1999.90;999.90;;;;;;;23.09;76.33;95283.41;4992230;28;20476;-69
2022/07/26 02:12:15;;;;;;;1999.90;999.90;;;;;;;22.95;74.99;95277.13;4990907;28;20036;-68
2022/07/26 02:14:40;;;;;;;1999.90;999.90;;;;;;;23.05;75.82;95298.13;4989500;28;20030;-69
2022/07/26 02:17:06;;;;;;;1999.90;999.90;;;;;;;23.04;76.08;95291.16;4995011;28;20096;-69
2022/07/26 02:19:32;;;;;;;1999.90;999.90;;;;;;;23.12;76.23;95292.72;4983089;28;20467;-69
2022/07/26 02:21:58;;;;;;;1999.90;999.90;;;;;;;23.11;75.68;95303.97;4995733;28;20136;-70
2022/07/26 02:24:27;;;;;;;1999.90;999.90;;;;;;;23.12;75.63;95300.84;4993448;28;20095;-69
2022/07/26 02:26:52;;;;;;;1999.90;999.90;;;;;;;23.05;75.25;95303.53;4994381;28;20022;-69
2022/07/26 02:29:18;;;;;;;1999.90;999.90;;;;;;;23.14;75.94;95314.06;4991978;28;20037;-69
2022/07/26 02:31:43;;;;;;;1999.90;999.90;;;;;;;23.11;76.24;95303.97;4992814;28;20038;-69
2022/07/26 02:34:08;;;;;;;1999.90;999.90;;;;;;;23.20;76.46;95305.16;5010743;28;20038;-69
2022/07/26 02:36:34;;;;;;;1999.90;999.90;;;;;;;23.18;75.98;95302.03;4995108;28;20045;-68
2022/07/26 02:38:59;;;;;;;1999.90;999.90;;;;;;;23.20;74.62;95310.59;4991579;28;20022;-69
2022/07/26 02:41:24;;;;;;;1999.90;999.90;;;;;;;23.07;74.53;95298.50;4973672;28;20113;-69
2022/07/26 02:43:50;;;;;;;1999.90;999.90;;;;;;;23.09;75.30;95298.91;5010595;28;20084;-68
2022/07/26 02:46:15;;;;;;;1999.90;999.90;;;;;;;23.20;75.99;95301.69;4998302;28;20093;-69
2022/07/26 02:48:40;;;;;;;1999.90;999.90;;;;;;;23.03;75.40;95278.72;5003279;28;20046;-69
2022/07/26 02:51:06;;;;;;;1999.90;999.90;;;;;;;23.22;75.88;95308.28;4990599;28;20022;-69
2022/07/26 02:53:31;;;;;;;1999.90;999.90;;;;;;;23.22;74.77;95313.69;5008052;28;20419;-68
2022/07/26 02:55:57;;;;;;;1999.90;999.90;;;;;;;23.11;74.82;95310.16;5001882;28;20109;-68
2022/07/26 02:58:23;;;;;;;1999.90;999.90;;;;;;;23.17;75.66;95289.63;4991131;28;20034;-69
2022/07/26 03:00:49;;;;;;;1999.90;999.90;;;;;;;23.42;75.41;95297.88;4972255;28;20030;-69
2022/07/26 03:03:15;;;;;;;1999.90;999.90;;;;;;;23.47;74.63;95296.75;4987274;28;20041;-69
2022/07/26 03:05:40;;;;;;;1999.90;999.90;;;;;;;23.58;75.48;95295.59;4986445;28;20026;-69
2022/07/26 03:08:06;;;;;;;1999.90;999.90;;;;;;;23.65;73.89;95299.53;4989648;28;20030;-68
2022/07/26 03:10:32;;;;;;;1999.90;999.90;;;;;;;23.59;74.30;95294.44;4989644;28;20478;-69
2022/07/26 03:12:57;;;;;;;1999.90;999.90;;;;;;;23.61;73.26;95292.13;4984473;28;20045;-68
2022/07/26 03:15:23;;;;;;;1999.90;999.90;;;;;;;23.66;73.64;95296.44;4988048;28;20121;-69
2022/07/26 03:17:48;;;;;;;1999.90;999.90;;;;;;;23.66;73.07;95290.25;4991183;28;20688;-68
2022/07/26 03:20:14;;;;;;;1999.90;999.90;;;;;;;23.56;72.98;95292.50;5005248;28;20034;-69
2022/07/26 03:22:40;;;;;;;1999.90;999.90;;;;;;;23.62;73.49;95290.19;4997943;28;20034;-69
2022/07/26 03:25:06;;;;;;;1999.90;999.90;;;;;;;23.60;72.60;95306.09;5008818;28;20026;-69
2022/07/26 03:27:31;;;;;;;1999.90;999.90;;;;;;;23.66;73.05;95296.44;4990575;28;20077;-68
2022/07/26 03:29:56;;;;;;;1999.90;999.90;;;;;;;23.61;71.94;95297.56;4990846;28;20050;-69
2022/07/26 03:32:22;;;;;;;1999.90;999.90;;;;;;;23.79;72.49;95303.06;4995050;28;20030;-69
2022/07/26 03:34:47;;;;;;;1999.90;999.90;;;;;;;23.84;72.11;95289.09;5002056;28;20026;-69
2022/07/26 03:37:12;;;;;;;1999.90;999.90;;;;;;;23.92;71.90;95298.06;4968231;28;20484;-70
2022/07/26 03:39:39;;;;;;;1999.90;999.90;;;;;;;24.06;71.61;95306.22;4975721;28;20467;-69
2022/07/26 03:42:05;;;;;;;1999.90;999.90;;;;;;;24.22;71.24;95303.13;4994180;28;20034;-68
2022/07/26 03:44:30;;;;;;;1999.90;999.90;;;;;;;24.32;70.29;95296.16;5004946;28;20453;-69
2022/07/26 03:46:55;;;;;;;1999.90;999.90;;;;;;;24.34;69.28;95300.00;4990812;28;20046;-69
2022/07/26 03:49:21;;;;;;;1999.90;999.90;;;;;;;24.41;70.11;95290.34;4988868;28;20084;-69
2022/07/26 03:51:46;;;;;;;1999.90;999.90;;;;;;;24.32;69.31;95263.53;4988711;28;20033;-69
2022/07/26 03:54:11;;;;;;;1999.90;999.90;;;;;;;24.31;68.97;95270.09;4989553;28;20399;-69
2022/07/26 03:56:37;;;;;;;1999.90;999.90;;;;;;;24.19;69.38;95265.84;4989151;28;20483;-69
2022/07/26 03:59:06;;;;;;;1999.90;999.90;;;;;;;24.35;69.04;95288.00;4989971;28;20052;-69
2022/07/26 04:01:33;;;;;;;1999.90;999.90;;;;;;;24.47;68.93;95296.97;4970423;28;20386;-69
2022/07/26 04:03:58;;;;;;;1999.90;999.90;;;;;;;24.06;68.93;95241.00;4972294;28;20117;-69
2022/07/26 04:06:24;;;;;;;1999.90;999.90;;;;;;;24.22;69.14;95292.25;4970573;28;20567;-69
2022/07/26 04:08:49;;;;;;;1999.90;999.90;;;;;;;24.31;68.73;95291.84;4990194;28;20514;-69
2022/07/26 04:11:14;;;;;;;1999.90;999.90;;;;;;;24.40;67.91;95296.94;4989217;28;20033;-75
2022/07/26 04:13:40;;;;;;;1999.90;999.90;;;;;;;24.47;68.23;95292.28;4989722;28;20030;-71
2022/07/26 04:16:06;;;;;;;1999.90;999.90;;;;;;;24.49;67.51;95289.16;4984614;28;20034;-73
2022/07/26 04:18:31;;;;;;;1999.90;999.90;;;;;;;24.47;65.91;95286.84;4990197;28;20015;-73
2022/07/26 04:20:56;;;;;;;1999.90;999.90;;;;;;;24.50;66.51;95307.03;4988285;28;20034;-73
2022/07/26 04:23:22;;;;;;;1999.90;999.90;;;;;;;24.62;67.38;95299.28;4971747;28;20395;-73
2022/07/26 04:25:47;;;;;;;1999.90;999.90;;;;;;;24.61;65.87;95297.69;4958693;28;20030;-73
2022/07/26 04:28:13;;;;;;;1999.90;999.90;;;;;;;24.78;66.11;95309.75;4970773;28;20031;-71
2022/07/26 04:30:38;;;;;;;1999.90;999.90;;;;;;;24.82;65.27;95321.38;4975933;28;20030;-71
2022/07/26 04:33:04;;;;;;;1999.90;999.90;;;;;;;24.50;66.32;95324.13;4988822;28;20134;-69
2022/07/26 04:35:30;;;;;;;1999.90;999.90;;;;;;;24.28;65.59;95326.03;4989307;28;20763;-71
2022/07/26 04:37:56;;;;;;;1999.90;999.90;;;;;;;24.02;68.04;95320.97;4988833;28;20030;-72
2022/07/26 04:40:22;;;;;;;1999.90;999.90;;;;;;;23.97;67.39;95313.19;4989418;28;20201;-72
2022/07/26 04:42:49;;;;;;;1999.90;999.90;;;;;;;24.12;67.43;95309.34;4971150;28;20093;-68
2022/07/26 04:45:14;;;;;;;1999.90;999.90;;;;;;;23.98;67.31;95304.66;4988115;28;20026;-68
2022/07/26 04:47:41;;;;;;;1999.90;999.90;;;;;;;23.91;68.00;95320.19;4989935;28;20033;-71
2022/07/26 04:50:07;;;;;;;1999.90;999.90;;;;;;;24.00;67.33;95324.06;4971726;28;20041;-72
2022/07/26 04:52:32;;;;;;;1999.90;999.90;;;;;;;23.90;65.28;95313.16;4970930;28;20030;-70
2022/07/26 04:54:57;;;;;;;1999.90;999.90;;;;;;;24.01;65.99;95303.13;4988838;28;20030;-72
2022/07/26 04:57:23;;;;;;;1999.90;999.90;;;;;;;24.12;65.33;95301.97;4989665;28;20018;-71
2022/07/26 04:59:48;;;;;;;1999.90;999.90;;;;;;;24.16;64.68;95315.56;4987714;28;20026;-68
2022/07/26 05:02:14;;;;;;;1999.90;999.90;;;;;;;24.22;64.75;95316.72;4989473;28;20113;-69
2022/07/26 05:04:41;;;;;;;1999.90;999.90;;;;;;;24.35;64.50;95325.25;4989969;28;20459;-68
2022/07/26 05:07:07;;;;;;;1999.90;999.90;;;;;;;24.31;64.51;95322.56;4972209;28;20110;-68
2022/07/26 05:09:32;;;;;;;1999.90;999.90;;;;;;;24.43;64.60;95326.84;4971095;28;20113;-66
2022/07/26 05:11:57;;;;;;;1999.90;999.90;;;;;;;24.41;64.26;95317.53;4988744;28;20045;-67
2022/07/26 05:14:22;;;;;;;1999.90;999.90;;;;;;;24.41;63.70;95325.69;4987581;28;20054;-64
2022/07/26 05:16:48;;;;;;;1999.90;999.90;;;;;;;24.36;64.02;95329.56;5004252;28;20088;-67
2022/07/26 05:19:14;;;;;;;1999.90;999.90;;;;;;;24.43;64.01;95336.97;4994057;28;20383;-66
2022/07/26 05:21:40;;;;;;;1999.90;999.90;;;;;;;24.41;63.72;95331.88;4979916;28;20079;-66
2022/07/26 05:24:05;;;;;;;1999.90;999.90;;;;;;;24.30;63.07;95331.09;4994068;28;20117;-65
2022/07/26 05:26:31;;;;;;;1999.90;999.90;;;;;;;24.15;63.20;95330.28;4974735;28;20138;-69
2022/07/26 05:28:57;;;;;;;1999.90;999.90;;;;;;;23.79;64.64;95327.50;4975057;28;20030;-65
2022/07/26 05:31:23;;;;;;;1999.90;999.90;;;;;;;23.67;64.68;95322.44;4990293;28;20034;-65
2022/07/26 05:33:48;;;;;;;1999.90;999.90;;;;;;;23.63;64.83;95324.34;4976432;28;20061;-65
2022/07/26 05:36:13;;;;;;;1999.90;999.90;;;;;;;23.20;65.24;95329.59;4975829;28;20527;-66
2022/07/26 05:38:39;;;;;;;1999.90;999.90;;;;;;;23.53;65.89;95333.22;5007625;28;20030;-65
2022/07/26 05:41:04;;;;;;;1999.90;999.90;;;;;;;23.75;66.38;95323.22;4992119;28;20030;-65
2022/07/26 05:43:30;;;;;;;1999.90;999.90;;;;;;;23.96;65.46;95325.22;4991998;28;20039;-65
2022/07/26 05:45:56;;;;;;;1999.90;999.90;;;;;;;24.11;63.81;95334.97;4974823;28;20026;-65
2022/07/26 05:48:22;;;;;;;1999.90;999.90;;;;;;;24.15;64.96;95329.50;4991306;28;20383;-66
2022/07/26 05:50:47;;;;;;;1999.90;999.90;;;;;;;24.17;63.02;95330.69;4991979;28;20031;-66
2022/07/26 05:53:12;;;;;;;1999.90;999.90;;;;;;;24.10;63.50;95333.38;4991978;28;20499;-66
2022/07/26 05:55:38;;;;;;;1999.90;999.90;;;;;;;23.78;64.68;95320.53;4992158;28;20022;-69
2022/07/26 05:58:03;;;;;;;1999.90;999.90;;;;;;;23.87;65.08;95333.75;4992274;28;20022;-71
2022/07/26 06:00:29;;;;;;;1999.90;999.90;;;;;;;23.94;65.49;95347.34;4974563;28;20368;-70
2022/07/26 06:02:54;;;;;;;1999.90;999.90;;;;;;;24.03;64.93;95338.81;4991071;28;20018;-70
2022/07/26 06:05:34;;;;;;;1999.90;999.90;;;;;;;23.98;63.91;95341.91;4960012;28;20122;-70
2022/07/26 06:07:59;;;;;;;1999.90;999.90;;;;;;;24.24;64.35;95338.06;5007055;28;20038;-69
2022/07/26 06:10:25;;;;;;;1999.90;999.90;;;;;;;24.52;63.52;95342.78;4991520;28;20026;-71
2022/07/26 06:12:50;;;;;;;1999.90;999.90;;;;;;;24.71;62.83;95342.38;4989129;22;20126;-65
2022/07/26 06:15:15;;;;;;;1999.90;999.90;;;;;;;24.28;62.84;95350.50;5027641;28;20034;-65
2022/07/26 06:17:41;;;;;;;1999.90;999.90;;;;;;;24.03;63.12;95315.13;5031983;28;20053;-64
2022/07/26 06:20:06;;;;;;;1999.90;999.90;;;;;;;24.37;63.36;95321.03;5050382;28;20416;-64
2022/07/26 06:22:32;;;;;;;1999.90;999.90;;;;;;;24.51;62.72;95325.66;5049363;28;20025;-63
2022/07/26 06:24:57;;;;;;;1999.90;999.90;;;;;;;24.62;62.10;95340.06;5030879;28;20086;-64
2022/07/26 06:27:22;;;;;;;1999.90;999.90;;;;;;;24.03;62.25;95327.94;5050176;28;20033;-64
2022/07/26 06:29:48;;;;;;;1999.90;999.90;;;;;;;24.08;62.92;95328.34;5033043;28;20060;-64
2022/07/26 06:32:13;;;;;;;1999.90;999.90;;;;;;;23.94;64.58;95343.84;5032259;28;20573;-65
2022/07/26 06:34:38;;;;;;;1999.90;999.90;;;;;;;24.13;64.27;95319.81;5032578;28;20025;-64
2022/07/26 06:37:03;;;;;;;1999.90;999.90;;;;;;;23.32;64.91;95329.25;5050472;28;20092;-65
2022/07/26 06:39:31;;;;;;;1999.90;999.90;;;;;;;23.89;65.20;95345.00;5050632;28;20382;-65
2022/07/26 06:41:56;;;;;;;1999.90;999.90;;;;;;;23.80;64.40;95356.25;5052408;28;20428;-66
2022/07/26 06:44:21;;;;;;;1999.90;999.90;;;;;;;23.73;64.87;95358.91;5032267;28;20021;-66
2022/07/26 06:46:47;;;;;;;1999.90;999.90;;;;;;;23.96;65.14;95364.03;5032790;28;20021;-65
2022/07/26 06:49:12;;;;;;;1999.90;999.90;;;;;;;23.80;67.70;95360.88;5050528;28;20378;-65
2022/07/26 06:51:38;;;;;;;1999.90;999.90;;;;;;;23.23;67.44;95336.97;5050453;28;20131;-66
2022/07/26 06:54:04;;;;;;;1999.90;999.90;;;;;;;22.65;69.11;95343.16;5050035;28;20029;-66
2022/07/26 06:56:31;;;;;;;1999.90;999.90;;;;;;;21.56;74.28;95340.97;5050395;28;20358;-65
2022/07/26 06:58:56;;;;;;;1999.90;999.90;;;;;;;21.60;75.27;95345.28;5050572;28;20084;-65
2022/07/26 07:01:21;;;;;;;1999.90;999.90;;;;;;;21.47;76.63;95374.50;5032461;28;20450;-65
2022/07/26 07:03:47;;;;;;;1999.90;999.90;;;;;;;21.28;77.03;95364.53;5032193;28;20066;-65
2022/07/26 07:06:12;;;;;;;1999.90;999.90;;;;;;;20.81;78.76;95343.44;5032293;28;20078;-65
2022/07/26 07:08:37;;;;;;;1999.90;999.90;;;;;;;20.33;80.90;95374.69;5032192;28;20017;-65
2022/07/26 07:11:03;;;;;;;1999.90;999.90;;;;;;;20.41;81.47;95384.47;5032336;28;20033;-65
2022/07/26 07:13:28;;;;;;;1999.90;999.90;;;;;;;20.45;79.99;95356.38;5049916;28;20482;-64
2022/07/26 07:15:53;;;;;;;1999.90;999.90;;;;;;;20.47;79.63;95364.94;5049870;28;20481;-64
2022/07/26 07:18:19;;;;;;;1999.90;999.90;;;;;;;20.26;80.87;95380.75;5050358;28;20033;-65
2022/07/26 07:20:44;;;;;;;1999.90;999.90;;;;;;;19.88;82.60;95362.72;5031842;28;20025;-64
2022/07/26 07:23:09;;;;;;;1999.90;999.90;;;;;;;19.73;84.96;95392.13;5031754;28;20033;-64
2022/07/26 07:25:34;;;;;;;1999.90;999.90;;;;;;;19.47;84.97;95373.06;5049671;28;20040;-64
2022/07/26 07:28:00;;;;;;;1999.90;999.90;;;;;;;19.00;86.34;95392.88;5031773;28;20032;-65
2022/07/26 07:30:26;;;;;;;1999.90;999.90;;;;;;;19.12;86.10;95395.47;5049569;28;20029;-65
2022/07/26 07:32:51;;;;;;;1999.90;999.90;;;;;;;19.20;84.87;95369.44;5049370;28;20029;-64
2022/07/26 07:35:17;;;;;;;1999.90;999.90;;;;;;;19.48;84.76;95388.91;5049278;28;20028;-65
2022/07/26 07:37:42;;;;;;;1999.90;999.90;;;;;;;19.04;83.84;95358.72;5049217;28;20021;-65
2022/07/26 07:40:08;;;;;;;1999.90;999.90;;;;;;;19.29;85.25;95398.88;5049985;28;20492;-65
2022/07/26 07:42:34;;;;;;;1999.90;999.90;;;;;;;19.46;84.05;95382.31;5031215;28;20377;-65
2022/07/26 07:45:00;;;;;;;1999.90;999.90;;;;;;;20.24;81.68;95383.81;5049416;28;20025;-65
2022/07/26 07:47:25;;;;;;;1999.90;999.90;;;;;;;20.13;81.09;95361.25;5049502;28;20023;-65
2022/07/26 07:49:51;;;;;;;1999.90;999.90;;;;;;;20.38;80.39;95350.09;5049502;28;20021;-65
2022/07/26 07:52:16;;;;;;;1999.90;999.90;;;;;;;21.05;78.50;95377.38;5049120;28;20031;-66
2022/07/26 07:54:41;;;;;;;1999.90;999.90;;;;;;;21.49;76.58;95374.88;5049174;28;20078;-65
2022/07/26 07:57:07;;;;;;;1999.90;999.90;;;;;;;22.19;77.23;95376.06;5031553;28;20043;-64
2022/07/26 07:59:32;;;;;;;1999.90;999.90;;;;;;;22.29;75.94;95383.53;5049430;28;20021;-65
2022/07/26 08:01:58;;;;;;;1999.90;999.90;;;;;;;21.56;75.94;95376.16;5031583;28;20035;-65
2022/07/26 08:04:23;;;;;;;1999.90;999.90;;;;;;;22.33;76.94;95382.81;5030719;28;20032;-65
2022/07/26 08:06:49;;;;;;;1999.90;999.90;;;;;;;22.35;74.73;95362.28;5014774;28;20094;-66
2022/07/26 08:09:14;;;;;;;1999.90;999.90;;;;;;;22.68;75.53;95393.94;5049330;28;20465;-65
2022/07/26 08:11:40;;;;;;;1999.90;999.90;;;;;;;22.82;76.82;95375.06;5031147;28;20032;-65
2022/07/26 08:14:05;;;;;;;1999.90;999.90;;;;;;;23.16;76.66;95393.91;5048715;28;20389;-65
2022/07/26 08:16:30;;;;;;;1999.90;999.90;;;;;;;23.09;77.38;95377.59;5031357;28;20021;-65
2022/07/26 08:18:55;;;;;;;1999.90;999.90;;;;;;;23.00;74.95;95388.00;5031289;28;20021;-65
2022/07/26 08:21:21;;;;;;;1999.90;999.90;;;;;;;22.90;74.91;95394.13;5049253;28;20032;-65
2022/07/26 08:23:46;;;;;;;1999.90;999.90;;;;;;;22.83;75.81;95390.19;5030751;28;20037;-66
2022/07/26 08:26:11;;;;;;;1999.90;999.90;;;;;;;22.93;76.39;95404.22;5049244;28;20021;-66
2022/07/26 08:28:38;;;;;;;1999.90;999.90;;;;;;;22.88;75.04;95407.25;5031265;28;20025;-65
2022/07/26 08:31:04;;;;;;;1999.90;999.90;;;;;;;22.83;75.63;95395.63;5048965;28;20111;-65
2022/07/26 08:33:29;;;;;;;1999.90;999.90;;;;;;;22.92;75.52;95408.09;5048674;28;20120;-65
2022/07/26 08:35:54;;;;;;;1999.90;999.90;;;;;;;22.71;74.27;95386.97;5048578;28;20083;-65
2022/07/26 08:38:20;;;;;;;1999.90;999.90;;;;;;;22.59;72.76;95390.78;5031238;28;20029;-65
2022/07/26 08:40:45;;;;;;;1999.90;999.90;;;;;;;22.71;72.83;95393.19;5031103;28;20545;-65
2022/07/26 08:43:10;;;;;;;1999.90;999.90;;;;;;;23.09;75.04;95399.31;5048555;28;20029;-65
2022/07/26 08:45:36;;;;;;;1999.90;999.90;;;;;;;22.87;72.00;95381.28;5049029;28;20025;-65
2022/07/26 08:48:01;;;;;;;1999.90;999.90;;;;;;;23.51;73.79;95409.63;5051477;28;20060;-65
2022/07/26 08:50:28;;;;;;;1999.90;999.90;;;;;;;23.73;73.40;95393.44;5052656;28;20025;-65
2022/07/26 08:53:00;;;;;;;1999.90;999.90;;;;;;;24.06;73.09;95409.50;5034651;28;20116;-65
2022/07/26 08:55:25;;;;;;;1999.90;999.90;;;;;;;24.20;72.08;95395.13;5052335;28;20103;-65
2022/07/26 08:57:51;;;;;;;1999.90;999.90;;;;;;;24.50;71.49;95416.59;5052953;28;20056;-65
2022/07/26 09:00:28;;;;;;;1999.90;999.90;;;;;;;24.62;68.48;95418.16;5052837;28;20068;-65
2022/07/26 09:02:54;;;;;;;1999.90;999.90;;;;;;;24.46;66.91;95415.00;5034200;28;20021;-65
2022/07/26 09:05:26;;;;;;;1999.90;999.90;;;;;;;24.41;66.96;95424.31;5052499;28;20036;-65
2022/07/26 09:07:52;;;;;;;1999.90;999.90;;;;;;;24.86;67.70;95416.59;5052491;28;20029;-65
2022/07/26 09:10:17;;;;;;;1999.90;999.90;;;;;;;24.85;62.58;95413.09;5052466;28;20439;-66
2022/07/26 09:12:43;;;;;;;1999.90;999.90;;;;;;;24.36;63.42;95405.69;5033945;28;20621;-66
2022/07/26 09:15:23;;;;;;;1999.90;999.90;;;;;;;24.28;64.61;95428.56;5034563;28;20032;-66
2022/07/26 09:17:52;;;;;;;1999.90;999.90;;;;;;;24.82;65.67;95418.53;5052255;28;20083;-66
2022/07/26 09:20:21;;;;;;;1999.90;999.90;;;;;;;25.55;66.58;95418.09;5034125;28;20494;-67
2022/07/26 09:23:03;;;;;;;1999.90;999.90;;;;;;;26.03;63.40;95420.25;5033746;28;20090;-66
2022/07/26 09:25:34;;;;;;;1999.90;999.90;;;;;;;26.44;64.14;95420.47;5034139;28;20021;-66
2022/07/26 09:28:01;;;;;;;1999.90;999.90;;;;;;;26.60;62.69;95419.97;5051916;28;20041;-66
2022/07/26 09:30:29;;;;;;;1999.90;999.90;;;;;;;26.66;62.37;95429.25;5051958;28;20025;-66
2022/07/26 09:33:00;;;;;;;1999.90;999.90;;;;;;;26.54;61.78;95402.47;5033784;28;20052;-66
2022/07/26 09:35:26;;;;;;;1999.90;999.90;;;;;;;26.56;62.18;95383.72;5034176;28;20039;-66
2022/07/26 09:37:51;;;;;;;1999.90;999.90;;;;;;;26.89;61.77;95407.66;5052038;28;20116;-64
2022/07/26 09:40:18;;;;;;;1999.90;999.90;;;;;;;27.08;60.94;95416.50;5051957;28;20139;-65
2022/07/26 09:42:58;;;;;;;1999.90;999.90;;;;;;;27.34;60.67;95412.34;5051261;28;20376;-65
2022/07/26 09:45:25;;;;;;;1999.90;999.90;;;;;;;27.56;57.00;95426.56;5051771;28;20079;-66
2022/07/26 09:48:09;;;;;;;1999.90;999.90;;;;;;;27.87;57.93;95414.50;5033745;28;20022;-66
2022/07/26 09:50:35;;;;;;;1999.90;999.90;;;;;;;28.18;57.33;95419.97;5051506;28;20033;-66
2022/07/26 09:53:05;;;;;;;1999.90;999.90;;;;;;;28.42;53.12;95410.69;5051341;28;20025;-66
2022/07/26 09:55:30;;;;;;;1999.90;999.90;;;;;;;28.68;54.98;95391.94;5051815;28;20099;-65
2022/07/26 09:58:02;;;;;;;1999.90;999.90;;;;;;;28.87;51.87;95418.63;5051393;28;20355;-65
2022/07/26 10:00:28;;;;;;;1999.90;999.90;;;;;;;29.12;52.78;95410.00;5032675;28;20022;-65
2022/07/26 10:02:53;;;;;;;1999.90;999.90;;;;;;;29.10;51.65;95381.47;5051120;28;20063;-66
2022/07/26 10:05:20;;;;;;;1999.90;999.90;;;;;;;29.60;49.89;95399.78;5051373;28;20075;-65
2022/07/26 10:07:49;;;;;;;1999.90;999.90;;;;;;;29.67;50.32;95391.41;5051260;28;20032;-65
2022/07/26 10:10:22;;;;;;;1999.90;999.90;;;;;;;29.60;48.27;95395.06;5033380;28;20025;-65
2022/07/26 10:12:50;;;;;;;1999.90;999.90;;;;;;;30.03;49.10;95408.69;5050817;28;20040;-65
2022/07/26 10:15:34;;;;;;;1999.90;999.90;;;;;;;30.50;48.34;95402.97;5051157;28;20032;-65
2022/07/26 10:18:00;;;;;;;1999.90;999.90;;;;;;;30.39;46.34;95402.44;5051232;28;20029;-65
2022/07/26 10:20:39;;;;;;;1999.90;999.90;;;;;;;30.79;45.66;95400.38;5050928;28;20465;-65
2022/07/26 10:23:35;;;;;;;1999.90;999.90;;;;;;;31.29;42.81;95382.69;5050739;28;20022;-65
2022/07/26 10:26:02;;;;;;;1999.90;999.90;;;;;;;31.68;42.55;95382.81;5050888;28;20024;-65
2022/07/26 10:28:29;;;;;;;1999.90;999.90;;;;;;;31.33;39.86;95396.34;5050803;28;20073;-65
2022/07/26 10:31:19;;;;;;;1999.90;999.90;;;;;;;29.25;42.99;95405.47;5032943;28;20072;-65
2022/07/26 10:33:47;;;;;;;1999.90;999.90;;;;;;;30.24;44.17;95385.53;5032535;28;20033;-65
2022/07/26 10:36:31;;;;;;;1999.90;999.90;;;;;;;30.58;42.58;95387.13;5050675;28;20033;-65
2022/07/26 10:38:59;;;;;;;1999.90;999.90;;;;;;;31.36;41.46;95397.44;5032943;28;20079;-65
2022/07/26 10:41:43;;;;;;;1999.90;999.90;;;;;;;31.71;41.15;95407.47;5050650;28;20025;-65
2022/07/26 10:44:15;;;;;;;1999.90;999.90;;;;;;;31.28;40.80;95392.13;5050279;28;20028;-65
2022/07/26 10:47:08;;;;;;;1999.90;999.90;;;;;;;31.79;41.07;95410.81;5032745;28;20926;-65
2022/07/26 10:49:38;;;;;;;1999.90;999.90;;;;;;;31.41;40.68;95399.66;5032703;28;20028;-65
2022/07/26 10:52:19;;;;;;;1999.90;999.90;;;;;;;31.22;38.81;95390.28;5049790;28;20363;-65